sensor_id;sensor_type;location;lat;lon;timestamp;P1;durP1;ratioP1;P2;durP2;ratioP2
14754;SDS011;7469;50.906;6.952;2023-05-29T00:00:04;7.87;;;3.77;;
14754;SDS011;7469;50.906;6.952;2023-05-29T00:02:34;10.43;;;3.70;;
14754;SDS011;7469;50.906;6.952;2023-05-29T00:05:03;9.97;;;3.97;;
14754;SDS011;7469;50.906;6.952;2023-05-29T00:07:32;6.50;;;3.83;;
14754;SDS011;7469;50.906;6.952;2023-05-29T00:10:00;6.63;;;3.60;;
14754;SDS011;7469;50.906;6.952;2023-05-29T00:12:28;9.90;;;3.53;;
14754;SDS011;7469;50.906;6.952;2023-05-29T00:14:56;8.70;;;4.10;;
14754;SDS011;7469;50.906;6.952;2023-05-29T00:17:24;8.57;;;3.93;;
14754;SDS011;7469;50.906;6.952;2023-05-29T00:19:52;7.47;;;3.93;;
14754;SDS011;7469;50.906;6.952;2023-05-29T00:22:21;6.07;;;3.30;;
14754;SDS011;7469;50.906;6.952;2023-05-29T00:24:50;5.27;;;3.70;;
14754;SDS011;7469;50.906;6.952;2023-05-29T00:27:18;7.60;;;3.30;;
14754;SDS011;7469;50.906;6.952;2023-05-29T00:29:46;9.70;;;3.63;;
14754;SDS011;7469;50.906;6.952;2023-05-29T00:32:14;8.77;;;3.70;;
14754;SDS011;7469;50.906;6.952;2023-05-29T00:34:42;7.47;;;3.87;;
14754;SDS011;7469;50.906;6.952;2023-05-29T00:37:10;6.70;;;3.20;;
14754;SDS011;7469;50.906;6.952;2023-05-29T00:39:39;9.20;;;3.53;;
14754;SDS011;7469;50.906;6.952;2023-05-29T00:42:08;7.03;;;3.70;;
14754;SDS011;7469;50.906;6.952;2023-05-29T00:44:36;6.63;;;3.53;;
14754;SDS011;7469;50.906;6.952;2023-05-29T00:47:04;6.43;;;3.47;;
14754;SDS011;7469;50.906;6.952;2023-05-29T00:49:35;8.03;;;3.60;;
14754;SDS011;7469;50.906;6.952;2023-05-29T00:52:03;8.77;;;3.23;;
14754;SDS011;7469;50.906;6.952;2023-05-29T00:54:32;9.23;;;4.03;;
14754;SDS011;7469;50.906;6.952;2023-05-29T00:57:02;8.87;;;3.40;;
14754;SDS011;7469;50.906;6.952;2023-05-29T00:59:33;8.73;;;3.83;;
14754;SDS011;7469;50.906;6.952;2023-05-29T01:02:02;6.53;;;3.43;;
14754;SDS011;7469;50.906;6.952;2023-05-29T01:04:30;3.63;;;2.83;;
14754;SDS011;7469;50.906;6.952;2023-05-29T01:07:00;8.40;;;3.63;;
14754;SDS011;7469;50.906;6.952;2023-05-29T01:09:29;5.83;;;3.47;;
14754;SDS011;7469;50.906;6.952;2023-05-29T01:12:03;4.27;;;3.20;;
14754;SDS011;7469;50.906;6.952;2023-05-29T01:14:45;7.27;;;3.37;;
14754;SDS011;7469;50.906;6.952;2023-05-29T01:17:23;7.33;;;3.93;;
14754;SDS011;7469;50.906;6.952;2023-05-29T01:20:01;7.13;;;3.50;;
14754;SDS011;7469;50.906;6.952;2023-05-29T01:22:50;7.17;;;2.80;;
14754;SDS011;7469;50.906;6.952;2023-05-29T01:25:42;7.47;;;3.13;;
14754;SDS011;7469;50.906;6.952;2023-05-29T01:28:37;6.23;;;3.40;;
14754;SDS011;7469;50.906;6.952;2023-05-29T01:31:09;9.63;;;3.27;;
14754;SDS011;7469;50.906;6.952;2023-05-29T01:33:40;7.53;;;3.87;;
14754;SDS011;7469;50.906;6.952;2023-05-29T01:36:08;6.00;;;3.40;;
14754;SDS011;7469;50.906;6.952;2023-05-29T01:38:37;7.07;;;3.50;;
14754;SDS011;7469;50.906;6.952;2023-05-29T01:41:07;6.67;;;3.63;;
14754;SDS011;7469;50.906;6.952;2023-05-29T01:43:36;5.80;;;3.40;;
14754;SDS011;7469;50.906;6.952;2023-05-29T01:46:05;7.47;;;3.80;;
14754;SDS011;7469;50.906;6.952;2023-05-29T01:48:33;6.97;;;3.40;;
14754;SDS011;7469;50.906;6.952;2023-05-29T01:51:02;6.07;;;3.70;;
14754;SDS011;7469;50.906;6.952;2023-05-29T01:53:31;8.10;;;3.40;;
14754;SDS011;7469;50.906;6.952;2023-05-29T01:55:59;7.30;;;3.30;;
14754;SDS011;7469;50.906;6.952;2023-05-29T01:58:27;5.33;;;3.13;;
14754;SDS011;7469;50.906;6.952;2023-05-29T02:00:59;5.83;;;3.27;;
14754;SDS011;7469;50.906;6.952;2023-05-29T02:03:29;5.77;;;3.30;;
14754;SDS011;7469;50.906;6.952;2023-05-29T02:05:58;7.20;;;3.17;;
14754;SDS011;7469;50.906;6.952;2023-05-29T02:08:27;5.67;;;3.10;;
14754;SDS011;7469;50.906;6.952;2023-05-29T02:10:55;5.70;;;3.63;;
14754;SDS011;7469;50.906;6.952;2023-05-29T02:13:23;5.13;;;3.37;;
14754;SDS011;7469;50.906;6.952;2023-05-29T02:15:50;4.87;;;3.57;;
14754;SDS011;7469;50.906;6.952;2023-05-29T02:18:20;8.50;;;3.80;;
14754;SDS011;7469;50.906;6.952;2023-05-29T02:20:48;7.70;;;3.57;;
14754;SDS011;7469;50.906;6.952;2023-05-29T02:23:16;10.70;;;3.37;;
14754;SDS011;7469;50.906;6.952;2023-05-29T02:25:45;5.07;;;3.30;;
14754;SDS011;7469;50.906;6.952;2023-05-29T02:28:13;6.77;;;3.10;;
14754;SDS011;7469;50.906;6.952;2023-05-29T02:30:41;7.83;;;3.90;;
14754;SDS011;7469;50.906;6.952;2023-05-29T02:33:09;6.50;;;3.43;;
14754;SDS011;7469;50.906;6.952;2023-05-29T02:35:38;4.67;;;3.23;;
14754;SDS011;7469;50.906;6.952;2023-05-29T02:38:06;7.03;;;3.60;;
14754;SDS011;7469;50.906;6.952;2023-05-29T02:40:34;6.60;;;3.40;;
14754;SDS011;7469;50.906;6.952;2023-05-29T02:43:02;9.93;;;4.00;;
14754;SDS011;7469;50.906;6.952;2023-05-29T02:45:30;6.63;;;3.43;;
14754;SDS011;7469;50.906;6.952;2023-05-29T02:47:58;6.37;;;3.97;;
14754;SDS011;7469;50.906;6.952;2023-05-29T02:50:26;9.30;;;4.13;;
14754;SDS011;7469;50.906;6.952;2023-05-29T02:52:56;10.00;;;4.40;;
14754;SDS011;7469;50.906;6.952;2023-05-29T02:55:24;9.83;;;4.00;;
14754;SDS011;7469;50.906;6.952;2023-05-29T02:57:52;7.43;;;4.10;;
14754;SDS011;7469;50.906;6.952;2023-05-29T03:00:21;9.77;;;4.37;;
14754;SDS011;7469;50.906;6.952;2023-05-29T03:02:49;6.43;;;4.07;;
14754;SDS011;7469;50.906;6.952;2023-05-29T03:05:17;8.60;;;3.30;;
14754;SDS011;7469;50.906;6.952;2023-05-29T03:07:45;7.97;;;3.53;;
14754;SDS011;7469;50.906;6.952;2023-05-29T03:10:15;5.87;;;3.40;;
14754;SDS011;7469;50.906;6.952;2023-05-29T03:12:44;3.90;;;3.47;;
14754;SDS011;7469;50.906;6.952;2023-05-29T03:15:12;7.80;;;3.53;;
14754;SDS011;7469;50.906;6.952;2023-05-29T03:17:40;7.17;;;3.37;;
14754;SDS011;7469;50.906;6.952;2023-05-29T03:20:08;6.67;;;4.03;;
14754;SDS011;7469;50.906;6.952;2023-05-29T03:22:37;4.90;;;3.50;;
14754;SDS011;7469;50.906;6.952;2023-05-29T03:25:06;6.47;;;3.70;;
14754;SDS011;7469;50.906;6.952;2023-05-29T03:27:36;9.40;;;3.40;;
14754;SDS011;7469;50.906;6.952;2023-05-29T03:30:05;8.20;;;3.87;;
14754;SDS011;7469;50.906;6.952;2023-05-29T03:32:34;8.17;;;4.03;;
14754;SDS011;7469;50.906;6.952;2023-05-29T03:35:02;8.33;;;3.70;;
14754;SDS011;7469;50.906;6.952;2023-05-29T03:37:30;8.57;;;4.07;;
14754;SDS011;7469;50.906;6.952;2023-05-29T03:39:58;6.93;;;4.13;;
14754;SDS011;7469;50.906;6.952;2023-05-29T03:42:26;7.80;;;3.80;;
14754;SDS011;7469;50.906;6.952;2023-05-29T03:44:55;11.83;;;4.70;;
14754;SDS011;7469;50.906;6.952;2023-05-29T03:47:23;8.10;;;4.33;;
14754;SDS011;7469;50.906;6.952;2023-05-29T03:49:51;11.33;;;4.20;;
14754;SDS011;7469;50.906;6.952;2023-05-29T03:52:19;8.30;;;3.97;;
14754;SDS011;7469;50.906;6.952;2023-05-29T03:54:47;10.97;;;4.30;;
14754;SDS011;7469;50.906;6.952;2023-05-29T03:57:15;10.73;;;3.80;;
14754;SDS011;7469;50.906;6.952;2023-05-29T03:59:43;7.63;;;3.50;;
14754;SDS011;7469;50.906;6.952;2023-05-29T04:02:12;8.00;;;3.80;;
14754;SDS011;7469;50.906;6.952;2023-05-29T04:04:42;7.97;;;3.97;;
14754;SDS011;7469;50.906;6.952;2023-05-29T04:07:11;10.83;;;4.53;;
14754;SDS011;7469;50.906;6.952;2023-05-29T04:09:38;8.77;;;4.20;;
14754;SDS011;7469;50.906;6.952;2023-05-29T04:12:07;9.97;;;3.60;;
14754;SDS011;7469;50.906;6.952;2023-05-29T04:14:35;10.90;;;4.40;;
14754;SDS011;7469;50.906;6.952;2023-05-29T04:17:03;7.10;;;3.93;;
14754;SDS011;7469;50.906;6.952;2023-05-29T04:19:33;6.67;;;4.00;;
14754;SDS011;7469;50.906;6.952;2023-05-29T04:22:01;8.37;;;4.23;;
14754;SDS011;7469;50.906;6.952;2023-05-29T04:24:29;8.73;;;3.97;;
14754;SDS011;7469;50.906;6.952;2023-05-29T04:26:58;8.57;;;4.20;;
14754;SDS011;7469;50.906;6.952;2023-05-29T04:29:26;11.57;;;4.20;;
14754;SDS011;7469;50.906;6.952;2023-05-29T04:31:55;10.43;;;4.80;;
14754;SDS011;7469;50.906;6.952;2023-05-29T04:34:24;8.93;;;4.03;;
14754;SDS011;7469;50.906;6.952;2023-05-29T04:36:53;11.20;;;4.10;;
14754;SDS011;7469;50.906;6.952;2023-05-29T04:39:21;11.47;;;4.43;;
14754;SDS011;7469;50.906;6.952;2023-05-29T04:41:49;10.70;;;4.57;;
14754;SDS011;7469;50.906;6.952;2023-05-29T04:44:17;10.90;;;3.90;;
14754;SDS011;7469;50.906;6.952;2023-05-29T04:46:45;12.07;;;4.10;;
14754;SDS011;7469;50.906;6.952;2023-05-29T04:49:13;11.00;;;4.97;;
14754;SDS011;7469;50.906;6.952;2023-05-29T04:51:41;10.53;;;4.07;;
14754;SDS011;7469;50.906;6.952;2023-05-29T04:54:10;11.23;;;4.73;;
14754;SDS011;7469;50.906;6.952;2023-05-29T04:56:38;11.83;;;4.60;;
14754;SDS011;7469;50.906;6.952;2023-05-29T04:59:07;11.23;;;4.63;;
14754;SDS011;7469;50.906;6.952;2023-05-29T05:01:35;12.80;;;4.73;;
14754;SDS011;7469;50.906;6.952;2023-05-29T05:04:03;9.03;;;4.27;;
14754;SDS011;7469;50.906;6.952;2023-05-29T05:06:31;10.87;;;4.50;;
14754;SDS011;7469;50.906;6.952;2023-05-29T05:09:00;11.47;;;4.70;;
14754;SDS011;7469;50.906;6.952;2023-05-29T05:11:29;13.20;;;4.63;;
14754;SDS011;7469;50.906;6.952;2023-05-29T05:13:57;13.53;;;4.97;;
14754;SDS011;7469;50.906;6.952;2023-05-29T05:16:25;12.13;;;5.33;;
14754;SDS011;7469;50.906;6.952;2023-05-29T05:18:53;13.63;;;4.67;;
14754;SDS011;7469;50.906;6.952;2023-05-29T05:21:21;12.97;;;4.73;;
14754;SDS011;7469;50.906;6.952;2023-05-29T05:23:49;12.27;;;4.63;;
14754;SDS011;7469;50.906;6.952;2023-05-29T05:26:24;11.37;;;4.73;;
14754;SDS011;7469;50.906;6.952;2023-05-29T05:28:54;13.27;;;5.27;;
14754;SDS011;7469;50.906;6.952;2023-05-29T05:31:22;12.13;;;4.93;;
14754;SDS011;7469;50.906;6.952;2023-05-29T05:33:51;13.33;;;5.17;;
14754;SDS011;7469;50.906;6.952;2023-05-29T05:36:19;11.60;;;5.10;;
14754;SDS011;7469;50.906;6.952;2023-05-29T05:38:47;8.33;;;5.03;;
14754;SDS011;7469;50.906;6.952;2023-05-29T05:41:15;16.10;;;5.67;;
14754;SDS011;7469;50.906;6.952;2023-05-29T05:43:43;14.63;;;5.53;;
14754;SDS011;7469;50.906;6.952;2023-05-29T05:46:12;15.53;;;5.80;;
14754;SDS011;7469;50.906;6.952;2023-05-29T05:48:41;16.83;;;5.50;;
14754;SDS011;7469;50.906;6.952;2023-05-29T05:51:09;17.23;;;5.70;;
14754;SDS011;7469;50.906;6.952;2023-05-29T05:53:38;15.43;;;5.33;;
14754;SDS011;7469;50.906;6.952;2023-05-29T05:56:06;15.47;;;5.67;;
14754;SDS011;7469;50.906;6.952;2023-05-29T05:58:34;15.33;;;6.23;;
14754;SDS011;7469;50.906;6.952;2023-05-29T06:01:02;14.63;;;4.87;;
14754;SDS011;7469;50.906;6.952;2023-05-29T06:03:32;13.47;;;4.67;;
14754;SDS011;7469;50.906;6.952;2023-05-29T06:06:00;10.53;;;4.80;;
14754;SDS011;7469;50.906;6.952;2023-05-29T06:08:28;15.40;;;4.97;;
14754;SDS011;7469;50.906;6.952;2023-05-29T06:10:57;14.20;;;4.63;;
14754;SDS011;7469;50.906;6.952;2023-05-29T06:13:25;13.37;;;4.50;;
14754;SDS011;7469;50.906;6.952;2023-05-29T06:15:53;14.03;;;4.57;;
14754;SDS011;7469;50.906;6.952;2023-05-29T06:18:22;14.87;;;4.83;;
14754;SDS011;7469;50.906;6.952;2023-05-29T06:20:51;9.63;;;4.27;;
14754;SDS011;7469;50.906;6.952;2023-05-29T06:23:20;10.83;;;4.20;;
14754;SDS011;7469;50.906;6.952;2023-05-29T06:25:47;13.93;;;4.17;;
14754;SDS011;7469;50.906;6.952;2023-05-29T06:28:15;10.90;;;4.53;;
14754;SDS011;7469;50.906;6.952;2023-05-29T06:30:43;12.50;;;4.93;;
14754;SDS011;7469;50.906;6.952;2023-05-29T06:33:12;13.03;;;4.87;;
14754;SDS011;7469;50.906;6.952;2023-05-29T06:35:40;13.00;;;4.33;;
14754;SDS011;7469;50.906;6.952;2023-05-29T06:38:09;9.93;;;4.63;;
14754;SDS011;7469;50.906;6.952;2023-05-29T06:40:37;13.40;;;4.30;;
14754;SDS011;7469;50.906;6.952;2023-05-29T06:43:05;10.53;;;4.17;;
14754;SDS011;7469;50.906;6.952;2023-05-29T06:45:33;12.63;;;4.80;;
14754;SDS011;7469;50.906;6.952;2023-05-29T06:48:01;16.07;;;5.70;;
14754;SDS011;7469;50.906;6.952;2023-05-29T06:50:29;15.97;;;5.10;;
14754;SDS011;7469;50.906;6.952;2023-05-29T06:52:57;9.80;;;4.07;;
14754;SDS011;7469;50.906;6.952;2023-05-29T06:55:26;11.73;;;4.13;;
14754;SDS011;7469;50.906;6.952;2023-05-29T06:57:54;14.50;;;4.37;;
14754;SDS011;7469;50.906;6.952;2023-05-29T07:00:22;12.93;;;4.13;;
14754;SDS011;7469;50.906;6.952;2023-05-29T07:02:50;11.77;;;4.07;;
14754;SDS011;7469;50.906;6.952;2023-05-29T07:05:18;11.30;;;4.20;;
14754;SDS011;7469;50.906;6.952;2023-05-29T07:07:46;10.47;;;4.13;;
14754;SDS011;7469;50.906;6.952;2023-05-29T07:10:14;12.33;;;4.07;;
14754;SDS011;7469;50.906;6.952;2023-05-29T07:12:44;10.87;;;3.97;;
14754;SDS011;7469;50.906;6.952;2023-05-29T07:15:12;13.20;;;4.33;;
14754;SDS011;7469;50.906;6.952;2023-05-29T07:17:40;12.77;;;4.23;;
14754;SDS011;7469;50.906;6.952;2023-05-29T07:20:08;9.90;;;3.73;;
14754;SDS011;7469;50.906;6.952;2023-05-29T07:22:37;11.97;;;3.93;;
14754;SDS011;7469;50.906;6.952;2023-05-29T07:25:06;11.70;;;4.17;;
14754;SDS011;7469;50.906;6.952;2023-05-29T07:27:34;11.40;;;3.63;;
14754;SDS011;7469;50.906;6.952;2023-05-29T07:30:03;10.30;;;3.83;;
14754;SDS011;7469;50.906;6.952;2023-05-29T07:32:32;9.70;;;4.20;;
14754;SDS011;7469;50.906;6.952;2023-05-29T07:35:01;14.70;;;4.30;;
14754;SDS011;7469;50.906;6.952;2023-05-29T07:37:28;9.50;;;4.00;;
14754;SDS011;7469;50.906;6.952;2023-05-29T07:39:57;13.27;;;4.37;;
14754;SDS011;7469;50.906;6.952;2023-05-29T07:42:25;10.87;;;3.80;;
14754;SDS011;7469;50.906;6.952;2023-05-29T07:44:54;14.80;;;4.37;;
14754;SDS011;7469;50.906;6.952;2023-05-29T07:47:23;11.27;;;3.87;;
14754;SDS011;7469;50.906;6.952;2023-05-29T07:49:51;12.40;;;4.30;;
14754;SDS011;7469;50.906;6.952;2023-05-29T07:52:19;12.63;;;3.80;;
14754;SDS011;7469;50.906;6.952;2023-05-29T07:54:47;12.00;;;4.83;;
14754;SDS011;7469;50.906;6.952;2023-05-29T07:57:15;10.17;;;4.23;;
14754;SDS011;7469;50.906;6.952;2023-05-29T07:59:43;10.17;;;3.90;;
14754;SDS011;7469;50.906;6.952;2023-05-29T08:02:10;11.33;;;3.93;;
14754;SDS011;7469;50.906;6.952;2023-05-29T08:04:40;13.67;;;3.90;;
14754;SDS011;7469;50.906;6.952;2023-05-29T08:07:08;16.63;;;4.00;;
14754;SDS011;7469;50.906;6.952;2023-05-29T08:09:36;13.90;;;3.80;;
14754;SDS011;7469;50.906;6.952;2023-05-29T08:12:04;11.87;;;4.07;;
14754;SDS011;7469;50.906;6.952;2023-05-29T08:14:33;11.17;;;3.97;;
14754;SDS011;7469;50.906;6.952;2023-05-29T08:17:01;11.53;;;4.00;;
14754;SDS011;7469;50.906;6.952;2023-05-29T08:19:29;9.23;;;3.77;;
14754;SDS011;7469;50.906;6.952;2023-05-29T08:21:58;11.90;;;4.43;;
14754;SDS011;7469;50.906;6.952;2023-05-29T08:24:26;15.17;;;4.67;;
14754;SDS011;7469;50.906;6.952;2023-05-29T08:26:55;9.57;;;3.80;;
14754;SDS011;7469;50.906;6.952;2023-05-29T08:29:23;13.03;;;4.50;;
14754;SDS011;7469;50.906;6.952;2023-05-29T08:31:51;7.47;;;3.70;;
14754;SDS011;7469;50.906;6.952;2023-05-29T08:34:19;12.17;;;4.07;;
14754;SDS011;7469;50.906;6.952;2023-05-29T08:36:50;10.57;;;4.23;;
14754;SDS011;7469;50.906;6.952;2023-05-29T08:39:22;11.47;;;4.23;;
14754;SDS011;7469;50.906;6.952;2023-05-29T08:41:51;10.07;;;3.80;;
14754;SDS011;7469;50.906;6.952;2023-05-29T08:44:28;10.87;;;4.20;;
14754;SDS011;7469;50.906;6.952;2023-05-29T08:47:00;9.70;;;3.30;;
14754;SDS011;7469;50.906;6.952;2023-05-29T08:49:34;11.10;;;3.90;;
14754;SDS011;7469;50.906;6.952;2023-05-29T08:52:09;10.37;;;3.73;;
14754;SDS011;7469;50.906;6.952;2023-05-29T08:54:40;9.67;;;3.50;;
14754;SDS011;7469;50.906;6.952;2023-05-29T08:57:08;7.13;;;3.37;;
14754;SDS011;7469;50.906;6.952;2023-05-29T08:59:39;13.70;;;4.40;;
14754;SDS011;7469;50.906;6.952;2023-05-29T09:02:09;8.47;;;3.40;;
14754;SDS011;7469;50.906;6.952;2023-05-29T09:04:37;10.47;;;3.30;;
14754;SDS011;7469;50.906;6.952;2023-05-29T09:07:05;9.90;;;3.30;;
14754;SDS011;7469;50.906;6.952;2023-05-29T09:09:35;12.27;;;3.73;;
14754;SDS011;7469;50.906;6.952;2023-05-29T09:12:05;10.17;;;3.73;;
14754;SDS011;7469;50.906;6.952;2023-05-29T09:14:35;10.30;;;3.50;;
14754;SDS011;7469;50.906;6.952;2023-05-29T09:17:05;9.13;;;3.40;;
14754;SDS011;7469;50.906;6.952;2023-05-29T09:19:35;11.13;;;3.63;;
14754;SDS011;7469;50.906;6.952;2023-05-29T09:22:04;11.10;;;4.00;;
14754;SDS011;7469;50.906;6.952;2023-05-29T09:24:34;9.70;;;3.90;;
14754;SDS011;7469;50.906;6.952;2023-05-29T09:27:02;11.63;;;4.40;;
14754;SDS011;7469;50.906;6.952;2023-05-29T09:29:37;9.53;;;4.07;;
14754;SDS011;7469;50.906;6.952;2023-05-29T09:32:06;10.47;;;3.57;;
14754;SDS011;7469;50.906;6.952;2023-05-29T09:34:36;8.90;;;3.60;;
14754;SDS011;7469;50.906;6.952;2023-05-29T09:37:05;9.77;;;3.73;;
14754;SDS011;7469;50.906;6.952;2023-05-29T09:39:44;9.43;;;3.60;;
14754;SDS011;7469;50.906;6.952;2023-05-29T09:42:14;8.57;;;3.67;;
14754;SDS011;7469;50.906;6.952;2023-05-29T09:44:44;9.93;;;3.83;;
14754;SDS011;7469;50.906;6.952;2023-05-29T09:47:14;11.23;;;3.93;;
14754;SDS011;7469;50.906;6.952;2023-05-29T09:49:43;9.60;;;3.97;;
14754;SDS011;7469;50.906;6.952;2023-05-29T09:52:12;8.40;;;3.95;;
14754;SDS011;7469;50.906;6.952;2023-05-29T09:54:41;8.80;;;4.00;;
14754;SDS011;7469;50.906;6.952;2023-05-29T09:57:14;8.13;;;3.90;;
14754;SDS011;7469;50.906;6.952;2023-05-29T09:59:44;8.83;;;3.73;;
14754;SDS011;7469;50.906;6.952;2023-05-29T10:02:14;11.97;;;4.50;;
14754;SDS011;7469;50.906;6.952;2023-05-29T10:04:42;10.90;;;3.80;;
14754;SDS011;7469;50.906;6.952;2023-05-29T10:07:12;8.70;;;3.77;;
14754;SDS011;7469;50.906;6.952;2023-05-29T10:09:52;7.90;;;3.57;;
14754;SDS011;7469;50.906;6.952;2023-05-29T10:12:26;10.00;;;3.97;;
14754;SDS011;7469;50.906;6.952;2023-05-29T10:14:56;9.07;;;4.23;;
14754;SDS011;7469;50.906;6.952;2023-05-29T10:17:25;10.50;;;3.80;;
14754;SDS011;7469;50.906;6.952;2023-05-29T10:19:56;13.80;;;4.10;;
14754;SDS011;7469;50.906;6.952;2023-05-29T10:22:29;7.37;;;3.80;;
14754;SDS011;7469;50.906;6.952;2023-05-29T10:24:59;12.45;;;4.03;;
14754;SDS011;7469;50.906;6.952;2023-05-29T10:27:28;9.87;;;4.10;;
14754;SDS011;7469;50.906;6.952;2023-05-29T10:29:58;9.00;;;3.80;;
14754;SDS011;7469;50.906;6.952;2023-05-29T10:32:32;8.77;;;4.00;;
14754;SDS011;7469;50.906;6.952;2023-05-29T10:35:08;7.57;;;3.53;;
14754;SDS011;7469;50.906;6.952;2023-05-29T10:37:44;11.07;;;4.23;;
14754;SDS011;7469;50.906;6.952;2023-05-29T10:40:22;8.63;;;3.90;;
14754;SDS011;7469;50.906;6.952;2023-05-29T10:42:53;9.60;;;4.00;;
14754;SDS011;7469;50.906;6.952;2023-05-29T10:51:08;10.40;;;3.90;;
14754;SDS011;7469;50.906;6.952;2023-05-29T10:53:52;10.37;;;4.33;;
14754;SDS011;7469;50.906;6.952;2023-05-29T10:56:21;10.17;;;4.13;;
14754;SDS011;7469;50.906;6.952;2023-05-29T10:58:55;12.37;;;4.67;;
14754;SDS011;7469;50.906;6.952;2023-05-29T11:01:25;12.57;;;4.33;;
14754;SDS011;7469;50.906;6.952;2023-05-29T11:06:56;9.63;;;4.33;;
14754;SDS011;7469;50.906;6.952;2023-05-29T11:09:28;9.80;;;3.97;;
14754;SDS011;7469;50.906;6.952;2023-05-29T11:12:14;10.13;;;4.17;;
14754;SDS011;7469;50.906;6.952;2023-05-29T11:14:56;9.10;;;4.00;;
14754;SDS011;7469;50.906;6.952;2023-05-29T11:17:31;8.23;;;4.50;;
14754;SDS011;7469;50.906;6.952;2023-05-29T11:20:03;10.77;;;4.67;;
14754;SDS011;7469;50.906;6.952;2023-05-29T11:22:46;10.97;;;4.00;;
14754;SDS011;7469;50.906;6.952;2023-05-29T11:25:24;9.93;;;4.37;;
14754;SDS011;7469;50.906;6.952;2023-05-29T11:27:52;10.20;;;3.93;;
14754;SDS011;7469;50.906;6.952;2023-05-29T11:30:21;11.27;;;4.60;;
14754;SDS011;7469;50.906;6.952;2023-05-29T11:32:49;9.77;;;4.40;;
14754;SDS011;7469;50.906;6.952;2023-05-29T11:35:21;13.27;;;4.53;;
14754;SDS011;7469;50.906;6.952;2023-05-29T11:37:49;9.20;;;4.03;;
14754;SDS011;7469;50.906;6.952;2023-05-29T11:40:17;11.80;;;4.00;;
14754;SDS011;7469;50.906;6.952;2023-05-29T11:42:46;13.27;;;4.47;;
14754;SDS011;7469;50.906;6.952;2023-05-29T11:45:16;13.07;;;4.70;;
14754;SDS011;7469;50.906;6.952;2023-05-29T11:47:51;10.50;;;4.10;;
14754;SDS011;7469;50.906;6.952;2023-05-29T11:50:24;12.17;;;4.10;;
14754;SDS011;7469;50.906;6.952;2023-05-29T11:52:53;9.80;;;4.27;;
14754;SDS011;7469;50.906;6.952;2023-05-29T11:55:22;10.53;;;3.97;;
14754;SDS011;7469;50.906;6.952;2023-05-29T11:57:52;11.37;;;4.20;;
14754;SDS011;7469;50.906;6.952;2023-05-29T12:00:24;9.20;;;4.20;;
14754;SDS011;7469;50.906;6.952;2023-05-29T12:02:53;14.47;;;5.00;;
14754;SDS011;7469;50.906;6.952;2023-05-29T12:05:21;10.30;;;4.13;;
14754;SDS011;7469;50.906;6.952;2023-05-29T12:07:50;9.53;;;4.27;;
14754;SDS011;7469;50.906;6.952;2023-05-29T12:10:19;14.57;;;4.17;;
14754;SDS011;7469;50.906;6.952;2023-05-29T12:12:49;11.67;;;4.13;;
14754;SDS011;7469;50.906;6.952;2023-05-29T12:15:18;12.03;;;4.23;;
14754;SDS011;7469;50.906;6.952;2023-05-29T12:17:48;9.67;;;3.80;;
14754;SDS011;7469;50.906;6.952;2023-05-29T12:20:18;11.50;;;4.13;;
14754;SDS011;7469;50.906;6.952;2023-05-29T12:22:47;13.70;;;4.47;;
14754;SDS011;7469;50.906;6.952;2023-05-29T12:25:15;13.00;;;3.60;;
14754;SDS011;7469;50.906;6.952;2023-05-29T12:27:45;14.03;;;3.57;;
14754;SDS011;7469;50.906;6.952;2023-05-29T12:30:14;6.43;;;3.53;;
14754;SDS011;7469;50.906;6.952;2023-05-29T12:32:59;12.40;;;4.30;;
14754;SDS011;7469;50.906;6.952;2023-05-29T12:35:29;11.33;;;3.53;;
14754;SDS011;7469;50.906;6.952;2023-05-29T12:37:58;9.43;;;3.63;;
14754;SDS011;7469;50.906;6.952;2023-05-29T12:40:27;9.20;;;4.07;;
14754;SDS011;7469;50.906;6.952;2023-05-29T12:42:57;11.27;;;4.00;;
14754;SDS011;7469;50.906;6.952;2023-05-29T12:45:27;10.10;;;3.80;;
14754;SDS011;7469;50.906;6.952;2023-05-29T12:47:57;9.53;;;3.80;;
14754;SDS011;7469;50.906;6.952;2023-05-29T12:50:28;12.40;;;3.60;;
14754;SDS011;7469;50.906;6.952;2023-05-29T12:52:59;10.63;;;3.50;;
14754;SDS011;7469;50.906;6.952;2023-05-29T12:55:28;8.63;;;3.63;;
14754;SDS011;7469;50.906;6.952;2023-05-29T12:57:59;9.93;;;3.90;;
14754;SDS011;7469;50.906;6.952;2023-05-29T13:00:27;13.30;;;3.70;;
14754;SDS011;7469;50.906;6.952;2023-05-29T13:02:56;18.33;;;4.17;;
14754;SDS011;7469;50.906;6.952;2023-05-29T13:05:25;10.60;;;4.00;;
14754;SDS011;7469;50.906;6.952;2023-05-29T13:07:54;5.60;;;2.97;;
14754;SDS011;7469;50.906;6.952;2023-05-29T13:10:22;13.30;;;3.93;;
14754;SDS011;7469;50.906;6.952;2023-05-29T13:12:53;9.27;;;3.67;;
14754;SDS011;7469;50.906;6.952;2023-05-29T13:15:25;7.97;;;3.57;;
14754;SDS011;7469;50.906;6.952;2023-05-29T13:17:53;8.83;;;3.53;;
14754;SDS011;7469;50.906;6.952;2023-05-29T13:20:21;9.23;;;3.40;;
14754;SDS011;7469;50.906;6.952;2023-05-29T13:22:49;6.93;;;3.57;;
14754;SDS011;7469;50.906;6.952;2023-05-29T13:25:21;8.37;;;3.63;;
14754;SDS011;7469;50.906;6.952;2023-05-29T13:27:50;13.17;;;3.80;;
14754;SDS011;7469;50.906;6.952;2023-05-29T13:30:19;13.17;;;3.83;;
14754;SDS011;7469;50.906;6.952;2023-05-29T13:32:48;13.57;;;3.37;;
14754;SDS011;7469;50.906;6.952;2023-05-29T13:35:17;11.47;;;3.40;;
14754;SDS011;7469;50.906;6.952;2023-05-29T13:37:45;9.67;;;2.93;;
14754;SDS011;7469;50.906;6.952;2023-05-29T13:40:13;10.10;;;3.83;;
14754;SDS011;7469;50.906;6.952;2023-05-29T13:42:42;11.90;;;3.63;;
14754;SDS011;7469;50.906;6.952;2023-05-29T13:45:10;7.50;;;3.87;;
14754;SDS011;7469;50.906;6.952;2023-05-29T13:47:39;11.93;;;4.53;;
14754;SDS011;7469;50.906;6.952;2023-05-29T13:50:08;10.20;;;3.30;;
14754;SDS011;7469;50.906;6.952;2023-05-29T13:52:36;12.17;;;3.70;;
14754;SDS011;7469;50.906;6.952;2023-05-29T13:55:05;8.07;;;3.60;;
14754;SDS011;7469;50.906;6.952;2023-05-29T13:57:35;10.40;;;3.50;;
14754;SDS011;7469;50.906;6.952;2023-05-29T14:00:05;6.00;;;3.00;;
14754;SDS011;7469;50.906;6.952;2023-05-29T14:02:35;7.20;;;3.63;;
14754;SDS011;7469;50.906;6.952;2023-05-29T14:05:03;7.90;;;3.27;;
14754;SDS011;7469;50.906;6.952;2023-05-29T14:07:32;11.17;;;3.90;;
14754;SDS011;7469;50.906;6.952;2023-05-29T14:10:00;5.40;;;3.03;;
14754;SDS011;7469;50.906;6.952;2023-05-29T14:12:28;8.23;;;4.30;;
14754;SDS011;7469;50.906;6.952;2023-05-29T14:14:56;6.87;;;3.70;;
14754;SDS011;7469;50.906;6.952;2023-05-29T14:17:25;11.53;;;3.97;;
14754;SDS011;7469;50.906;6.952;2023-05-29T14:19:53;8.67;;;3.60;;
14754;SDS011;7469;50.906;6.952;2023-05-29T14:22:21;7.73;;;3.70;;
14754;SDS011;7469;50.906;6.952;2023-05-29T14:24:49;8.77;;;3.27;;
14754;SDS011;7469;50.906;6.952;2023-05-29T14:27:17;8.93;;;3.50;;
14754;SDS011;7469;50.906;6.952;2023-05-29T14:29:48;6.37;;;3.20;;
14754;SDS011;7469;50.906;6.952;2023-05-29T14:32:16;8.07;;;3.10;;
14754;SDS011;7469;50.906;6.952;2023-05-29T14:34:45;8.43;;;3.10;;
14754;SDS011;7469;50.906;6.952;2023-05-29T14:37:13;7.83;;;3.27;;
14754;SDS011;7469;50.906;6.952;2023-05-29T14:39:41;8.40;;;3.27;;
14754;SDS011;7469;50.906;6.952;2023-05-29T14:42:09;12.20;;;3.70;;
14754;SDS011;7469;50.906;6.952;2023-05-29T14:44:37;12.27;;;3.73;;
14754;SDS011;7469;50.906;6.952;2023-05-29T14:47:05;9.23;;;3.23;;
14754;SDS011;7469;50.906;6.952;2023-05-29T14:49:33;11.47;;;3.93;;
14754;SDS011;7469;50.906;6.952;2023-05-29T14:52:03;13.03;;;3.70;;
14754;SDS011;7469;50.906;6.952;2023-05-29T14:54:31;8.60;;;3.77;;
14754;SDS011;7469;50.906;6.952;2023-05-29T14:56:59;11.03;;;3.60;;
14754;SDS011;7469;50.906;6.952;2023-05-29T14:59:28;8.97;;;3.43;;
14754;SDS011;7469;50.906;6.952;2023-05-29T15:01:56;16.27;;;4.97;;
14754;SDS011;7469;50.906;6.952;2023-05-29T15:04:26;13.40;;;3.57;;
14754;SDS011;7469;50.906;6.952;2023-05-29T15:06:54;10.30;;;3.67;;
14754;SDS011;7469;50.906;6.952;2023-05-29T15:09:33;19.27;;;4.50;;
14754;SDS011;7469;50.906;6.952;2023-05-29T15:12:01;9.00;;;3.40;;
14754;SDS011;7469;50.906;6.952;2023-05-29T15:14:30;9.63;;;4.23;;
14754;SDS011;7469;50.906;6.952;2023-05-29T15:16:57;10.93;;;3.67;;